Nearby METAR Reports

 

LIEE - Cagliari Elmas, Italy
Distance from station: ONO 12km
Dati ricevuti: 20/01/2020 13:20
Pioggia, Nuvoloso
Pioggia, Nuvoloso
 Vento da ESE
Vento: ESE 41 km/h
Temperatura: 13°C
P.to Rugiada: 12°C
Umidità: 94%
Barometro: 1024 hPa
Sommario: Pioggia
Nuvole: Molto nuvoloso
Visibility: 8 km
Cloud details: Parz. nuvoloso 914 m
Molto nuvoloso 1676 m
2020/01/20 12:20 LIEE 201220Z 11022KT 8000 RA SCT030 BKN055 13/12 Q1024
LIED - Decimomannu, Italy
Distance from station: NNO 22km
Dati ricevuti: 20/01/2020 12:55
Pioviggine, Parz. nuvoloso
Pioviggine, Parz. nuvoloso
 Vento da E
Vento: E 19 km/h
Temperatura: 12°C
P.to Rugiada: 11°C
Umidità: 94%
Barometro: 1023 hPa
Sommario: Pioviggine
Nuvole: Parz. nuvoloso
Visibility: 5 km
Cloud details: Few Clouds 152 m
Parz. nuvoloso 610 m
2020/01/20 11:55 LIED 201155Z 09010KT 5000 -RA FEW005 SCT020 12/11 Q1023 RMK OVC VIS MIN 5000 WIND THR35 09010KT WIND THR17 /////KT WHT